Carpenter, Wyoming
Current Conditions -  °F | °C
As of 12:15 PM on Friday 28 Nov 2014 (Local Time) from K82V Reporting Station
Clear Clear  
Wind Chill: 61°   Ceiling: Unl
Heat Index: 61°   Visibility: 10mi
Dew Point: 12°   Wind: 18mph
Humidity: 15%   Direction: 270°W
Pressure: 29.84"   Gusts: 24mph
Location:  41.05°N, 104.37°W
Report Text: K82V 281915Z AUTO 27016G21KT 10SM CLR 16/M11 A2984 RMK AO2
Loading
Personal Weather Stations






























Interactive Weather Map New forecast layout! Learn more

10-Day Weather Forecast

Advertisements
Track Severe Weather on mobile